Time;durP1;ratioP1;P1;durP2;ratioP2;P2;SDS_P1;SDS_P2;PMS_P1;PMS_P2;Temp;Humidity;BMP_temperature;BMP_pressure;BME280_temperature;BME280_humidity;BME280_pressure;Samples;Min_cycle;Max_cycle;Signal;HPM_P1;HPM_P2
2024/01/12 00:02:04;;;;;;;18.10;9.93;;;;;;;;;;6278564;28;20064;-62
2024/01/12 00:05:07;;;;;;;18.95;9.88;;;;;;;;;;6286372;28;20052;-61
2024/01/12 00:08:07;;;;;;;18.10;9.05;;;;;;;;;;6284888;28;20053;-61
2024/01/12 00:11:09;;;;;;;18.40;8.80;;;;;;;;;;6285469;28;20098;-62
2024/01/12 00:14:12;;;;;;;17.37;8.40;;;;;;;;;;6286220;28;20420;-62
2024/01/12 00:17:13;;;;;;;18.02;8.25;;;;;;;;;;6284800;28;20067;-62
2024/01/12 00:20:13;;;;;;;16.00;7.78;;;;;;;;;;6286861;28;20041;-61
2024/01/12 00:23:14;;;;;;;20.58;9.38;;;;;;;;;;6286250;28;20044;-62
2024/01/12 00:26:16;;;;;;;17.65;8.70;;;;;;;;;;6282426;28;20051;-62
2024/01/12 00:29:17;;;;;;;18.25;8.38;;;;;;;;;;6291858;28;20415;-62
2024/01/12 00:32:18;;;;;;;18.45;8.00;;;;;;;;;;6289008;28;20040;-61
2024/01/12 00:35:18;;;;;;;18.13;8.48;;;;;;;;;;6288014;28;20048;-62
2024/01/12 00:38:19;;;;;;;16.85;8.82;;;;;;;;;;6292610;28;20041;-61
2024/01/12 00:41:20;;;;;;;16.67;8.50;;;;;;;;;;6293532;28;20086;-61
2024/01/12 00:44:23;;;;;;;15.93;8.30;;;;;;;;;;6290431;28;20068;-62
2024/01/12 00:47:24;;;;;;;16.33;8.23;;;;;;;;;;6289174;28;20109;-62
2024/01/12 00:50:24;;;;;;;17.92;9.02;;;;;;;;;;6290607;28;20503;-61
2024/01/12 00:53:25;;;;;;;17.08;9.25;;;;;;;;;;6289953;28;20138;-62
2024/01/12 00:56:26;;;;;;;15.70;8.18;;;;;;;;;;6292387;28;20040;-63
2024/01/12 00:59:27;;;;;;;15.57;8.63;;;;;;;;;;6292570;28;20059;-63
2024/01/12 01:02:27;;;;;;;15.75;8.30;;;;;;;;;;6291956;28;20045;-61
2024/01/12 01:05:28;;;;;;;16.10;7.82;;;;;;;;;;6291142;28;20064;-63
2024/01/12 01:08:29;;;;;;;18.98;8.75;;;;;;;;;;6292898;28;20044;-62
2024/01/12 01:11:30;;;;;;;15.88;8.55;;;;;;;;;;6291397;28;21430;-63
2024/01/12 01:14:30;;;;;;;16.80;7.97;;;;;;;;;;6290509;28;20454;-63
2024/01/12 01:17:31;;;;;;;17.48;8.65;;;;;;;;;;6291869;28;20053;-62
2024/01/12 01:20:33;;;;;;;17.50;8.48;;;;;;;;;;6292026;28;20044;-62
2024/01/12 01:23:34;;;;;;;16.10;8.20;;;;;;;;;;6290272;28;20484;-62
2024/01/12 01:26:35;;;;;;;18.70;8.73;;;;;;;;;;6292250;28;20056;-63
2024/01/12 01:29:36;;;;;;;16.17;7.82;;;;;;;;;;6291892;28;20052;-62
2024/01/12 01:32:36;;;;;;;18.60;9.23;;;;;;;;;;6291139;28;20873;-63
2024/01/12 01:35:37;;;;;;;20.45;9.38;;;;;;;;;;6289133;28;20041;-63
2024/01/12 01:38:38;;;;;;;18.50;8.75;;;;;;;;;;6291998;28;20056;-63
2024/01/12 01:41:41;;;;;;;20.17;8.95;;;;;;;;;;6289020;28;20669;-63
2024/01/12 01:44:41;;;;;;;17.48;9.30;;;;;;;;;;6289691;28;20048;-63
2024/01/12 01:47:43;;;;;;;17.25;8.27;;;;;;;;;;6290603;28;20139;-63
2024/01/12 01:50:44;;;;;;;15.67;8.13;;;;;;;;;;6289935;28;20053;-63
2024/01/12 01:53:45;;;;;;;18.55;8.88;;;;;;;;;;6288821;28;20048;-63
2024/01/12 01:56:46;;;;;;;17.20;8.80;;;;;;;;;;6291086;28;20048;-63
2024/01/12 01:59:47;;;;;;;18.60;8.18;;;;;;;;;;6291480;28;20101;-62
2024/01/12 02:02:48;;;;;;;17.33;8.77;;;;;;;;;;6290631;28;20623;-63
2024/01/12 02:05:51;;;;;;;20.08;9.77;;;;;;;;;;6288760;28;20511;-63
2024/01/12 02:08:52;;;;;;;16.45;8.85;;;;;;;;;;6278153;28;20178;-64
2024/01/12 02:11:53;;;;;;;18.75;8.60;;;;;;;;;;6290385;28;20119;-63
2024/01/12 02:14:54;;;;;;;18.08;8.85;;;;;;;;;;6286558;28;20126;-62
2024/01/12 02:17:55;;;;;;;19.83;10.02;;;;;;;;;;6289559;28;20044;-62
2024/01/12 02:20:58;;;;;;;24.35;9.70;;;;;;;;;;6290412;28;20056;-63
2024/01/12 02:23:59;;;;;;;20.23;9.95;;;;;;;;;;6289021;28;20051;-63
2024/01/12 02:27:00;;;;;;;20.48;9.50;;;;;;;;;;6288424;28;20029;-63
2024/01/12 02:30:01;;;;;;;18.55;9.52;;;;;;;;;;6289973;28;20462;-62
2024/01/12 02:33:08;;;;;;;19.20;10.05;;;;;;;;;;6289180;28;20040;-64
2024/01/12 02:36:09;;;;;;;22.42;11.40;;;;;;;;;;6287540;28;20053;-63
2024/01/12 02:39:10;;;;;;;24.02;12.50;;;;;;;;;;6288921;28;20051;-64
2024/01/12 02:42:11;;;;;;;22.50;12.00;;;;;;;;;;6288989;28;20060;-62
2024/01/12 02:45:11;;;;;;;25.52;11.65;;;;;;;;;;6287600;28;20052;-63
2024/01/12 02:48:13;;;;;;;23.23;11.80;;;;;;;;;;6287428;28;20045;-63
2024/01/12 02:51:13;;;;;;;23.10;11.32;;;;;;;;;;6287919;28;20848;-63
2024/01/12 02:54:14;;;;;;;22.77;11.75;;;;;;;;;;6288164;28;20082;-64
2024/01/12 02:57:15;;;;;;;23.70;11.45;;;;;;;;;;6289707;28;20572;-63
2024/01/12 03:00:16;;;;;;;22.55;11.00;;;;;;;;;;6290148;28;20082;-63
2024/01/12 03:03:17;;;;;;;29.20;12.30;;;;;;;;;;6289112;28;20048;-63
2024/01/12 03:06:18;;;;;;;26.88;11.85;;;;;;;;;;6288161;28;20052;-63
2024/01/12 03:09:18;;;;;;;24.42;10.88;;;;;;;;;;6289314;28;20143;-63
2024/01/12 03:12:19;;;;;;;24.80;11.45;;;;;;;;;;6288002;28;20438;-63
2024/01/12 03:15:20;;;;;;;24.83;10.77;;;;;;;;;;6285921;28;20201;-63
2024/01/12 03:18:22;;;;;;;25.63;11.52;;;;;;;;;;6289485;28;20048;-63
2024/01/12 03:21:22;;;;;;;25.93;10.90;;;;;;;;;;6282734;28;20128;-63
2024/01/12 03:24:23;;;;;;;22.88;11.27;;;;;;;;;;6286459;28;20657;-63
2024/01/12 03:27:24;;;;;;;25.25;11.20;;;;;;;;;;6289158;28;20404;-63
2024/01/12 03:30:24;;;;;;;25.05;11.13;;;;;;;;;;6290767;28;20060;-63
2024/01/12 03:33:25;;;;;;;25.00;11.85;;;;;;;;;;6287166;28;20061;-63
2024/01/12 03:36:27;;;;;;;25.73;11.27;;;;;;;;;;6288149;28;20541;-61
2024/01/12 03:39:28;;;;;;;24.63;11.90;;;;;;;;;;6289600;28;20048;-61
2024/01/12 03:42:28;;;;;;;26.30;12.07;;;;;;;;;;6288525;28;20483;-63
2024/01/12 03:45:29;;;;;;;27.40;11.95;;;;;;;;;;6285904;28;20052;-63
2024/01/12 03:48:30;;;;;;;26.38;12.07;;;;;;;;;;6289262;28;20036;-63
2024/01/12 03:51:30;;;;;;;27.05;12.63;;;;;;;;;;6286700;28;20060;-63
2024/01/12 03:54:31;;;;;;;27.17;11.32;;;;;;;;;;6285343;28;20044;-63
2024/01/12 03:57:32;;;;;;;24.30;11.68;;;;;;;;;;6288649;28;20044;-62
2024/01/12 04:00:33;;;;;;;26.60;12.18;;;;;;;;;;6292092;28;20044;-63
2024/01/12 04:03:33;;;;;;;27.58;13.00;;;;;;;;;;6292365;28;20106;-63
2024/01/12 04:06:34;;;;;;;24.92;11.80;;;;;;;;;;6292571;28;20072;-63
2024/01/12 04:09:35;;;;;;;26.02;12.27;;;;;;;;;;6292723;28;20060;-63
2024/01/12 04:12:37;;;;;;;31.40;13.15;;;;;;;;;;6293486;28;20048;-63
2024/01/12 04:15:38;;;;;;;27.10;11.70;;;;;;;;;;6291970;28;20098;-63
2024/01/12 04:18:39;;;;;;;22.98;11.15;;;;;;;;;;6293647;28;20847;-62
2024/01/12 04:21:40;;;;;;;23.05;11.23;;;;;;;;;;6293633;28;20075;-63
2024/01/12 04:24:41;;;;;;;23.60;10.52;;;;;;;;;;6291852;28;20484;-63
2024/01/12 04:27:41;;;;;;;22.08;10.45;;;;;;;;;;6293773;28;20555;-63
2024/01/12 04:30:42;;;;;;;24.88;10.60;;;;;;;;;;6290837;28;20551;-63
2024/01/12 04:33:42;;;;;;;23.73;11.13;;;;;;;;;;6294366;28;20059;-64
2024/01/12 04:36:44;;;;;;;24.15;11.15;;;;;;;;;;6293984;28;20094;-62
2024/01/12 04:39:44;;;;;;;27.95;11.15;;;;;;;;;;6291622;28;20048;-62
2024/01/12 04:42:45;;;;;;;24.38;10.60;;;;;;;;;;6292320;28;20040;-63
2024/01/12 04:45:46;;;;;;;23.75;11.00;;;;;;;;;;6292779;28;20052;-63
2024/01/12 04:48:46;;;;;;;23.70;11.20;;;;;;;;;;6292581;28;20049;-62
2024/01/12 04:51:47;;;;;;;25.25;11.43;;;;;;;;;;6291914;28;20654;-63
2024/01/12 04:54:48;;;;;;;26.88;11.77;;;;;;;;;;6290500;28;20047;-61
2024/01/12 04:57:49;;;;;;;28.02;12.93;;;;;;;;;;6294065;28;20044;-63
2024/01/12 05:00:50;;;;;;;26.07;12.27;;;;;;;;;;6292654;28;20120;-62
2024/01/12 05:03:50;;;;;;;28.90;12.40;;;;;;;;;;6291355;28;20045;-63
2024/01/12 05:06:51;;;;;;;30.35;13.90;;;;;;;;;;6292031;28;20052;-63
2024/01/12 05:09:52;;;;;;;29.35;12.98;;;;;;;;;;6292638;28;20369;-62
2024/01/12 05:12:53;;;;;;;31.50;15.05;;;;;;;;;;6293271;28;20049;-61
2024/01/12 05:15:53;;;;;;;34.65;14.05;;;;;;;;;;6285928;28;20059;-62
2024/01/12 05:18:54;;;;;;;30.33;13.98;;;;;;;;;;6281906;28;20060;-63
2024/01/12 05:21:54;;;;;;;31.90;14.35;;;;;;;;;;6290925;28;20584;-62
2024/01/12 05:24:55;;;;;;;31.23;12.38;;;;;;;;;;6289486;28;20051;-61
2024/01/12 05:27:56;;;;;;;29.25;12.52;;;;;;;;;;6291045;28;20044;-62
2024/01/12 05:30:58;;;;;;;26.05;12.13;;;;;;;;;;6291328;28;20487;-63
2024/01/12 05:33:59;;;;;;;25.48;11.77;;;;;;;;;;6290392;28;20473;-61
2024/01/12 05:36:59;;;;;;;30.45;12.25;;;;;;;;;;6282601;28;20037;-62
2024/01/12 05:40:00;;;;;;;30.95;12.35;;;;;;;;;;6289542;28;20109;-62
2024/01/12 05:43:01;;;;;;;30.40;13.05;;;;;;;;;;6283132;28;20047;-63
2024/01/12 05:46:01;;;;;;;29.48;12.07;;;;;;;;;;6287017;28;20037;-62
2024/01/12 05:49:04;;;;;;;25.77;11.05;;;;;;;;;;6287102;28;20037;-64
2024/01/12 05:52:05;;;;;;;23.83;10.98;;;;;;;;;;6284788;28;20044;-63
2024/01/12 05:55:06;;;;;;;25.27;9.98;;;;;;;;;;6286027;28;20064;-64
2024/01/12 05:58:08;;;;;;;26.17;11.30;;;;;;;;;;6291061;28;20122;-63
2024/01/12 06:01:09;;;;;;;;;;;;;;;;;;6292315;28;20048;-60
2024/01/12 06:04:09;;;;;;;22.95;10.50;;;;;;;;;;6287972;28;19951;-61
2024/01/12 06:07:10;;;;;;;26.15;10.70;;;;;;;;;;6288374;28;20487;-61
2024/01/12 06:10:12;;;;;;;25.95;10.82;;;;;;;;;;6289462;28;20462;-64
2024/01/12 06:13:13;;;;;;;29.20;10.70;;;;;;;;;;6290512;28;20040;-65
2024/01/12 06:16:14;;;;;;;26.27;11.45;;;;;;;;;;6286248;28;20455;-63
2024/01/12 06:19:15;;;;;;;25.95;10.50;;;;;;;;;;6291514;28;20052;-63
2024/01/12 06:22:15;;;;;;;26.15;10.98;;;;;;;;;;6287295;28;20078;-61
2024/01/12 06:25:16;;;;;;;21.67;10.32;;;;;;;;;;6286064;28;20053;-61
2024/01/12 06:28:17;;;;;;;24.17;10.55;;;;;;;;;;6289989;28;20044;-63
2024/01/12 06:31:18;;;;;;;25.67;10.45;;;;;;;;;;6288484;28;20049;-61
2024/01/12 06:34:18;;;;;;;25.55;11.43;;;;;;;;;;6286479;28;20040;-65
2024/01/12 06:37:19;;;;;;;29.08;11.88;;;;;;;;;;6289447;28;20045;-62
2024/01/12 06:40:20;;;;;;;26.92;10.70;;;;;;;;;;6290130;28;20041;-65
2024/01/12 06:43:21;;;;;;;25.33;10.60;;;;;;;;;;6289494;28;20071;-61
2024/01/12 06:46:21;;;;;;;24.13;10.35;;;;;;;;;;6289229;28;20377;-61
2024/01/12 06:49:22;;;;;;;22.77;9.50;;;;;;;;;;6288845;28;20541;-63
2024/01/12 06:52:22;;;;;;;21.17;9.93;;;;;;;;;;6290348;28;20045;-64
2024/01/12 06:55:23;;;;;;;23.98;9.02;;;;;;;;;;6287665;28;20541;-61
2024/01/12 06:58:24;;;;;;;23.33;9.00;;;;;;;;;;6289721;28;20045;-61
2024/01/12 07:01:24;;;;;;;22.48;8.95;;;;;;;;;;6288389;28;20057;-60
2024/01/12 07:04:25;;;;;;;22.67;8.82;;;;;;;;;;6287362;28;20060;-63
2024/01/12 07:07:26;;;;;;;20.15;8.77;;;;;;;;;;6287910;28;20052;-63
2024/01/12 07:10:26;;;;;;;23.73;9.02;;;;;;;;;;6289799;28;20048;-64
2024/01/12 07:13:27;;;;;;;25.30;8.80;;;;;;;;;;6288757;28;20044;-62
2024/01/12 07:16:28;;;;;;;23.20;9.52;;;;;;;;;;6288636;28;20784;-64
2024/01/12 07:19:28;;;;;;;22.02;9.43;;;;;;;;;;6289009;28;20048;-63
2024/01/12 07:22:29;;;;;;;26.27;10.38;;;;;;;;;;6288589;28;20055;-62
2024/01/12 07:25:33;;;;;;;21.92;9.73;;;;;;;;;;6288255;28;20605;-60
2024/01/12 07:28:34;;;;;;;23.40;9.25;;;;;;;;;;6288887;28;20049;-61
2024/01/12 07:31:36;;;;;;;23.70;9.07;;;;;;;;;;6289156;28;20063;-62
2024/01/12 07:34:37;;;;;;;;;;;;;;;;;;6287574;28;20079;-65
2024/01/12 07:37:38;;;;;;;22.58;9.70;;;;;;;;;;6289244;28;19924;-64
2024/01/12 07:40:38;;;;;;;23.10;9.60;;;;;;;;;;6285795;28;20212;-65
2024/01/12 07:43:39;;;;;;;25.08;11.13;;;;;;;;;;6286099;28;20048;-63
2024/01/12 07:46:40;;;;;;;22.70;10.75;;;;;;;;;;6287833;28;20424;-63
2024/01/12 07:49:41;;;;;;;28.38;10.82;;;;;;;;;;6288813;28;20060;-63
2024/01/12 07:52:41;;;;;;;24.48;12.18;;;;;;;;;;6288495;28;20040;-65
2024/01/12 07:55:42;;;;;;;28.02;11.90;;;;;;;;;;6287896;28;20090;-63
2024/01/12 07:58:43;;;;;;;26.45;12.75;;;;;;;;;;6288519;28;20044;-65
2024/01/12 08:01:45;;;;;;;25.88;11.93;;;;;;;;;;6287668;28;20079;-60
2024/01/12 08:04:45;;;;;;;26.73;11.23;;;;;;;;;;6286658;28;20048;-65
2024/01/12 08:07:47;;;;;;;28.85;10.98;;;;;;;;;;6287117;28;20067;-64
2024/01/12 08:10:47;;;;;;;27.17;12.18;;;;;;;;;;6288181;28;20431;-65
2024/01/12 08:13:48;;;;;;;30.08;12.70;;;;;;;;;;6288085;28;20041;-66
2024/01/12 08:16:49;;;;;;;29.65;12.82;;;;;;;;;;6288698;28;20425;-65
2024/01/12 08:19:50;;;;;;;27.40;11.37;;;;;;;;;;6289046;28;20044;-62
2024/01/12 08:22:50;;;;;;;26.58;10.75;;;;;;;;;;6287794;28;20888;-64
2024/01/12 08:25:51;;;;;;;21.75;9.40;;;;;;;;;;6286342;28;20101;-65
2024/01/12 08:28:55;;;;;;;24.65;9.68;;;;;;;;;;6286553;28;20722;-66
2024/01/12 08:31:55;;;;;;;20.75;8.88;;;;;;;;;;6288586;28;20052;-62
2024/01/12 08:34:56;;;;;;;20.05;7.95;;;;;;;;;;6287251;28;20049;-64
2024/01/12 08:37:57;;;;;;;18.05;7.80;;;;;;;;;;6287882;28;20033;-62
2024/01/12 08:40:57;;;;;;;19.33;8.02;;;;;;;;;;6288984;28;20048;-64
2024/01/12 08:43:58;;;;;;;15.88;7.85;;;;;;;;;;6287232;28;20048;-63
2024/01/12 08:46:59;;;;;;;18.30;8.48;;;;;;;;;;6292289;28;20106;-64
2024/01/12 08:50:00;;;;;;;19.73;9.18;;;;;;;;;;6290410;28;20059;-64
2024/01/12 08:53:01;;;;;;;16.42;7.75;;;;;;;;;;6292351;28;20055;-67
2024/01/12 08:56:02;;;;;;;18.20;8.07;;;;;;;;;;6293386;28;20480;-64
2024/01/12 08:59:02;;;;;;;19.83;7.65;;;;;;;;;;6291525;28;20444;-65
2024/01/12 09:02:03;;;;;;;14.43;7.10;;;;;;;;;;6292363;28;20466;-62
2024/01/12 09:05:04;;;;;;;18.17;7.88;;;;;;;;;;6291200;28;20059;-67
2024/01/12 09:08:05;;;;;;;17.70;7.78;;;;;;;;;;6292416;28;20057;-62
2024/01/12 09:11:06;;;;;;;19.50;8.80;;;;;;;;;;6290892;28;20059;-63
2024/01/12 09:14:07;;;;;;;18.27;8.32;;;;;;;;;;6290193;28;20056;-62
2024/01/12 09:17:08;;;;;;;15.55;7.75;;;;;;;;;;6292299;28;20048;-65
2024/01/12 09:20:09;;;;;;;15.40;6.57;;;;;;;;;;6292747;28;20048;-64
2024/01/12 09:23:10;;;;;;;17.15;7.38;;;;;;;;;;6292295;28;20044;-63
2024/01/12 09:26:11;;;;;;;14.10;5.75;;;;;;;;;;6291533;28;20053;-65
2024/01/12 09:29:12;;;;;;;16.65;6.90;;;;;;;;;;6292407;28;20487;-61
2024/01/12 09:32:13;;;;;;;14.35;5.82;;;;;;;;;;6285871;28;20121;-61
2024/01/12 09:35:14;;;;;;;14.65;5.25;;;;;;;;;;6289632;28;20045;-61
2024/01/12 09:38:15;;;;;;;14.07;5.63;;;;;;;;;;6291447;28;20498;-64
2024/01/12 09:41:22;;;;;;;15.32;5.20;;;;;;;;;;6291162;28;20056;-64
2024/01/12 09:44:26;;;;;;;13.88;4.97;;;;;;;;;;6288648;28;20056;-64
2024/01/12 09:47:27;;;;;;;14.68;5.82;;;;;;;;;;6290817;28;20052;-64
2024/01/12 09:50:29;;;;;;;13.90;6.35;;;;;;;;;;6290030;28;20056;-60
2024/01/12 09:53:31;;;;;;;17.47;7.80;;;;;;;;;;6291291;28;20048;-64
2024/01/12 09:56:32;;;;;;;14.65;6.43;;;;;;;;;;6289283;28;20052;-62
2024/01/12 09:59:36;;;;;;;12.95;5.88;;;;;;;;;;6291812;28;20514;-61
2024/01/12 10:02:37;;;;;;;13.88;6.38;;;;;;;;;;6290613;28;20109;-63
2024/01/12 10:05:38;;;;;;;14.05;7.07;;;;;;;;;;6289785;28;20781;-65
2024/01/12 10:08:40;;;;;;;14.68;6.75;;;;;;;;;;6289823;28;20441;-65
2024/01/12 10:11:42;;;;;;;17.77;7.88;;;;;;;;;;6290739;28;20485;-64
2024/01/12 10:14:42;;;;;;;16.90;7.13;;;;;;;;;;6291440;28;20135;-64
2024/01/12 10:17:43;;;;;;;15.48;7.38;;;;;;;;;;6288660;28;20044;-63
2024/01/12 10:20:44;;;;;;;18.00;6.93;;;;;;;;;;6290232;28;20407;-64
2024/01/12 10:23:45;;;;;;;16.63;7.70;;;;;;;;;;6290595;28;20047;-64
2024/01/12 10:26:46;;;;;;;13.05;6.13;;;;;;;;;;6287228;28;20051;-65
2024/01/12 10:29:47;;;;;;;18.63;8.20;;;;;;;;;;6287917;28;20048;-61
2024/01/12 10:32:52;;;;;;;16.40;7.28;;;;;;;;;;6290605;28;20388;-66
2024/01/12 10:36:06;;;;;;;12.45;5.55;;;;;;;;;;6288855;28;20101;-62
2024/01/12 10:39:09;;;;;;;13.77;6.00;;;;;;;;;;6290301;28;20086;-64
2024/01/12 10:42:12;;;;;;;12.48;5.40;;;;;;;;;;6290326;28;20787;-64
2024/01/12 10:45:13;;;;;;;12.20;6.13;;;;;;;;;;6289269;28;20056;-65
2024/01/12 10:48:19;;;;;;;16.25;7.43;;;;;;;;;;6289300;28;20071;-64
2024/01/12 10:51:25;;;;;;;15.80;6.72;;;;;;;;;;6290130;28;20491;-65
2024/01/12 10:54:32;;;;;;;16.35;7.72;;;;;;;;;;6290210;28;20064;-61
2024/01/12 10:57:33;;;;;;;17.40;8.10;;;;;;;;;;6273981;28;20045;-65
2024/01/12 11:00:34;;;;;;;18.83;9.15;;;;;;;;;;6289601;28;20044;-64
2024/01/12 11:03:35;;;;;;;19.00;9.40;;;;;;;;;;6289664;28;20458;-62
2024/01/12 11:06:38;;;;;;;22.15;9.93;;;;;;;;;;6288879;28;20816;-63
2024/01/12 11:09:39;;;;;;;22.60;9.00;;;;;;;;;;6289032;28;20036;-65
2024/01/12 11:12:40;;;;;;;19.42;8.80;;;;;;;;;;6289164;28;20040;-64
2024/01/12 11:15:42;;;;;;;17.42;8.38;;;;;;;;;;6289066;28;20049;-66
2024/01/12 11:18:43;;;;;;;17.95;8.43;;;;;;;;;;6287021;28;20048;-65
2024/01/12 11:21:44;;;;;;;14.13;6.50;;;;;;;;;;6288137;28;20045;-62
2024/01/12 11:24:44;;;;;;;16.77;7.70;;;;;;;;;;6288119;28;20040;-66
2024/01/12 11:27:50;;;;;;;15.38;7.43;;;;;;;;;;6287967;28;20048;-65
2024/01/12 11:30:51;;;;;;;16.25;6.93;;;;;;;;;;6288461;28;20052;-64
2024/01/12 11:34:00;;;;;;;17.92;7.00;;;;;;;;;;6287100;28;20044;-65
2024/01/12 11:37:02;;;;;;;17.17;7.63;;;;;;;;;;6287408;28;20919;-65
2024/01/12 11:40:09;;;;;;;15.88;8.25;;;;;;;;;;6288260;28;20044;-65
2024/01/12 11:43:16;;;;;;;16.98;7.50;;;;;;;;;;6290860;28;20048;-65
2024/01/12 11:46:17;;;;;;;13.15;6.13;;;;;;;;;;6287199;28;20102;-65
2024/01/12 11:49:19;;;;;;;13.85;6.35;;;;;;;;;;6287522;28;20052;-65
2024/01/12 11:52:20;;;;;;;12.80;6.15;;;;;;;;;;6289043;28;20408;-61
2024/01/12 11:55:20;;;;;;;15.40;6.18;;;;;;;;;;6288956;28;20056;-66
2024/01/12 11:58:21;;;;;;;14.13;5.90;;;;;;;;;;6288632;28;20514;-66
2024/01/12 12:01:24;;;;;;;13.40;5.85;;;;;;;;;;6288080;28;20133;-65
2024/01/12 12:04:25;;;;;;;12.57;6.13;;;;;;;;;;6287616;28;20122;-64
2024/01/12 12:07:26;;;;;;;14.60;6.80;;;;;;;;;;6289029;28;20053;-66
2024/01/12 12:10:28;;;;;;;9.77;5.10;;;;;;;;;;6287416;28;20048;-60
2024/01/12 12:13:29;;;;;;;11.47;4.97;;;;;;;;;;6288315;28;20048;-65
2024/01/12 12:16:30;;;;;;;12.23;5.50;;;;;;;;;;6287453;28;20053;-60
2024/01/12 12:19:30;;;;;;;12.07;4.82;;;;;;;;;;6287154;28;20048;-65
2024/01/12 12:22:32;;;;;;;12.90;5.07;;;;;;;;;;6294015;28;20404;-64
2024/01/12 12:25:32;;;;;;;12.15;5.25;;;;;;;;;;6292385;28;20063;-64
2024/01/12 12:28:33;;;;;;;10.50;4.93;;;;;;;;;;6291526;28;20040;-63
2024/01/12 12:31:39;;;;;;;12.68;4.90;;;;;;;;;;6292753;28;20059;-61
2024/01/12 12:34:40;;;;;;;12.85;4.95;;;;;;;;;;6292383;28;20063;-65
2024/01/12 12:41:54;;;;;;;13.20;5.70;;;;;;;;;;6291663;28;20044;-64
2024/01/12 12:44:55;;;;;;;13.43;5.97;;;;;;;;;;6291268;28;20538;-63
2024/01/12 12:47:57;;;;;;;14.77;6.90;;;;;;;;;;6293460;28;20045;-65
2024/01/12 12:50:58;;;;;;;16.07;6.90;;;;;;;;;;6292336;28;20048;-65
2024/01/12 12:53:59;;;;;;;15.87;7.23;;;;;;;;;;6291603;28;20093;-64
2024/01/12 12:57:00;;;;;;;17.58;7.47;;;;;;;;;;6293201;28;20509;-65
2024/01/12 13:00:04;;;;;;;16.98;7.93;;;;;;;;;;6291413;28;20048;-63
2024/01/12 13:03:05;;;;;;;20.48;8.23;;;;;;;;;;6290115;28;20052;-61
2024/01/12 13:06:06;;;;;;;18.08;8.23;;;;;;;;;;6290519;28;20052;-61
2024/01/12 13:09:06;;;;;;;19.75;8.38;;;;;;;;;;6292990;28;20052;-65
2024/01/12 13:12:09;;;;;;;21.92;8.15;;;;;;;;;;6291843;28;20052;-64
2024/01/12 13:15:09;;;;;;;14.90;7.13;;;;;;;;;;6291475;28;20045;-64
2024/01/12 13:18:10;;;;;;;16.33;7.85;;;;;;;;;;6289202;28;20056;-62
2024/01/12 13:21:11;;;;;;;19.73;8.20;;;;;;;;;;6293987;28;20090;-63
2024/01/12 13:24:12;;;;;;;17.38;7.63;;;;;;;;;;6290799;28;20056;-63
2024/01/12 13:27:12;;;;;;;17.45;7.43;;;;;;;;;;6291049;28;20049;-62
2024/01/12 13:30:39;;;;;;;18.58;7.53;;;;;;;;;;6291834;28;20048;-62
2024/01/12 13:33:40;;;;;;;17.98;7.22;;;;;;;;;;6288962;28;20648;-61
2024/01/12 13:36:44;;;;;;;19.23;8.25;;;;;;;;;;6289864;28;20045;-61
2024/01/12 13:39:46;;;;;;;17.45;7.15;;;;;;;;;;6287411;28;20049;-65
2024/01/12 13:42:49;;;;;;;18.50;7.88;;;;;;;;;;6291813;28;20048;-64
2024/01/12 13:45:50;;;;;;;16.20;7.60;;;;;;;;;;6290079;28;20044;-63
2024/01/12 13:48:52;;;;;;;18.30;7.50;;;;;;;;;;6291232;28;20140;-64
2024/01/12 13:51:53;;;;;;;14.85;6.57;;;;;;;;;;6280248;28;20298;-64
2024/01/12 13:54:54;;;;;;;18.50;7.13;;;;;;;;;;6281825;28;20043;-62
2024/01/12 13:57:55;;;;;;;15.13;6.50;;;;;;;;;;6289370;28;20076;-64
2024/01/12 14:00:56;;;;;;;17.88;6.82;;;;;;;;;;6288693;28;20045;-64
2024/01/12 14:03:57;;;;;;;17.13;6.97;;;;;;;;;;6269365;28;20970;-62
2024/01/12 14:06:58;;;;;;;16.40;6.65;;;;;;;;;;6267365;28;20052;-63
2024/01/12 14:10:00;;;;;;;14.07;5.95;;;;;;;;;;6270333;28;20060;-65
2024/01/12 14:13:01;;;;;;;15.45;6.60;;;;;;;;;;6267825;28;20053;-65
2024/01/12 14:16:03;;;;;;;14.13;6.55;;;;;;;;;;6272522;28;20110;-65
2024/01/12 14:19:03;;;;;;;14.25;6.55;;;;;;;;;;6265499;28;20057;-64
2024/01/12 14:22:04;;;;;;;19.30;7.13;;;;;;;;;;6268076;28;20087;-64
2024/01/12 14:25:06;;;;;;;18.48;7.35;;;;;;;;;;6263491;28;20083;-63
2024/01/12 14:28:06;;;;;;;15.98;6.97;;;;;;;;;;6268083;28;20060;-63
2024/01/12 14:31:07;;;;;;;18.17;7.57;;;;;;;;;;6265175;28;20516;-65
2024/01/12 14:34:08;;;;;;;19.83;7.30;;;;;;;;;;6266445;28;20140;-64
2024/01/12 14:37:10;;;;;;;16.05;7.38;;;;;;;;;;6269311;28;20049;-65
2024/01/12 14:40:11;;;;;;;;;;;;;;;;;;6267825;28;20052;-64
2024/01/12 14:43:12;;;;;;;15.63;6.75;;;;;;;;;;6264927;28;19929;-63
2024/01/12 14:46:13;;;;;;;16.50;6.43;;;;;;;;;;6264468;28;20098;-64
2024/01/12 14:49:14;;;;;;;19.73;7.20;;;;;;;;;;6269867;28;20561;-65
2024/01/12 14:52:17;;;;;;;17.15;6.70;;;;;;;;;;6267077;28;20057;-65
2024/01/12 14:55:18;;;;;;;13.70;6.43;;;;;;;;;;6262256;28;20052;-65
2024/01/12 14:58:19;;;;;;;17.02;6.60;;;;;;;;;;6265361;28;20099;-65
2024/01/12 15:01:20;;;;;;;17.40;6.95;;;;;;;;;;6267646;28;20791;-65
2024/01/12 15:04:21;;;;;;;17.55;7.15;;;;;;;;;;6266825;28;20144;-65
2024/01/12 15:07:22;;;;;;;17.65;7.28;;;;;;;;;;6265162;28;20542;-64
2024/01/12 15:10:24;;;;;;;14.50;7.35;;;;;;;;;;6268416;28;20533;-64
2024/01/12 15:13:25;;;;;;;21.63;7.73;;;;;;;;;;6271722;28;20052;-60
2024/01/12 15:16:26;;;;;;;15.00;6.32;;;;;;;;;;6264258;28;20060;-60
2024/01/12 15:19:27;;;;;;;14.95;6.22;;;;;;;;;;6270992;28;20059;-60
2024/01/12 15:22:27;;;;;;;12.90;5.75;;;;;;;;;;6268883;28;20515;-62
2024/01/12 15:25:28;;;;;;;12.35;5.45;;;;;;;;;;6265479;28;20507;-61
2024/01/12 15:28:30;;;;;;;16.15;6.55;;;;;;;;;;6262878;28;20451;-63
2024/01/12 15:31:30;;;;;;;17.80;7.30;;;;;;;;;;6265923;28;20507;-62
2024/01/12 15:34:31;;;;;;;17.40;7.32;;;;;;;;;;6265795;28;20045;-61
2024/01/12 15:37:32;;;;;;;23.20;8.27;;;;;;;;;;6263587;28;20048;-64
2024/01/12 15:40:32;;;;;;;16.67;6.65;;;;;;;;;;6267556;28;20514;-64
2024/01/12 15:43:33;;;;;;;16.80;7.00;;;;;;;;;;6263968;28;20553;-61
2024/01/12 15:46:34;;;;;;;16.85;7.30;;;;;;;;;;6261552;28;20056;-63
2024/01/12 15:49:34;;;;;;;20.83;7.97;;;;;;;;;;6263331;28;20057;-63
2024/01/12 15:52:35;;;;;;;15.40;7.30;;;;;;;;;;6267755;28;20467;-63
2024/01/12 15:55:36;;;;;;;18.67;7.15;;;;;;;;;;6260585;28;20080;-65
2024/01/12 15:58:37;;;;;;;19.63;7.53;;;;;;;;;;6264961;28;20056;-66
2024/01/12 16:01:37;;;;;;;17.45;7.50;;;;;;;;;;6262563;28;20060;-62
2024/01/12 16:04:38;;;;;;;18.85;8.65;;;;;;;;;;6264678;28;20072;-64
2024/01/12 16:07:39;;;;;;;21.13;8.60;;;;;;;;;;6225061;28;1245414;-66
2024/01/12 16:10:40;;;;;;;18.48;8.27;;;;;;;;;;6271684;28;20063;-64
2024/01/12 16:13:41;;;;;;;19.73;8.60;;;;;;;;;;6268239;28;20052;-63
2024/01/12 16:16:42;;;;;;;19.35;8.63;;;;;;;;;;6264554;28;20466;-66
2024/01/12 16:19:48;;;;;;;19.27;8.07;;;;;;;;;;6264946;28;20045;-62
2024/01/12 16:22:49;;;;;;;19.13;8.40;;;;;;;;;;6269063;28;20045;-63
2024/01/12 16:25:49;;;;;;;17.75;8.30;;;;;;;;;;6265083;28;20063;-61
2024/01/12 16:28:50;;;;;;;17.58;7.45;;;;;;;;;;6271028;28;20044;-61
2024/01/12 16:31:51;;;;;;;13.63;6.63;;;;;;;;;;6271932;28;20041;-65
2024/01/12 16:34:53;;;;;;;14.07;6.63;;;;;;;;;;6270082;28;20427;-62
2024/01/12 16:37:54;;;;;;;13.95;5.85;;;;;;;;;;6268648;28;20089;-62
2024/01/12 16:40:55;;;;;;;10.70;5.22;;;;;;;;;;6266645;28;20071;-63
2024/01/12 16:43:55;;;;;;;13.27;6.55;;;;;;;;;;6269990;28;20053;-64
2024/01/12 16:46:56;;;;;;;12.32;5.35;;;;;;;;;;6269185;28;20382;-61
2024/01/12 16:49:57;;;;;;;13.55;5.95;;;;;;;;;;6270612;28;20076;-64
2024/01/12 16:52:58;;;;;;;11.07;5.63;;;;;;;;;;6270759;28;20727;-65
2024/01/12 16:55:58;;;;;;;12.60;5.60;;;;;;;;;;6267698;28;20091;-66
2024/01/12 16:58:59;;;;;;;11.77;5.97;;;;;;;;;;6273878;28;20147;-64
2024/01/12 17:02:01;;;;;;;10.98;5.63;;;;;;;;;;6273769;28;20102;-67
2024/01/12 17:05:02;;;;;;;13.65;5.90;;;;;;;;;;6269614;28;20083;-64
2024/01/12 17:08:02;;;;;;;14.27;6.90;;;;;;;;;;6271106;28;20976;-60
2024/01/12 17:11:07;;;;;;;14.32;5.75;;;;;;;;;;6267787;28;20052;-62
2024/01/12 17:14:07;;;;;;;12.85;6.07;;;;;;;;;;6272542;28;20484;-61
2024/01/12 17:17:08;;;;;;;14.30;5.90;;;;;;;;;;6266967;28;20048;-62
2024/01/12 17:20:11;;;;;;;11.60;5.78;;;;;;;;;;6273787;28;20108;-60
2024/01/12 17:23:12;;;;;;;12.32;6.22;;;;;;;;;;6272159;28;20103;-61
2024/01/12 17:26:12;;;;;;;14.60;5.80;;;;;;;;;;6264494;28;20071;-64
2024/01/12 17:29:13;;;;;;;13.55;6.68;;;;;;;;;;6272269;28;20568;-61
2024/01/12 17:32:15;;;;;;;11.88;6.00;;;;;;;;;;6269901;28;20068;-62
2024/01/12 17:35:15;;;;;;;13.10;5.90;;;;;;;;;;6271944;28;20118;-62
2024/01/12 17:38:16;;;;;;;12.65;5.90;;;;;;;;;;6269209;28;20057;-63
2024/01/12 17:41:22;;;;;;;13.50;5.97;;;;;;;;;;6272688;28;20325;-63
2024/01/12 17:44:23;;;;;;;15.93;6.57;;;;;;;;;;6269703;28;20080;-63
2024/01/12 17:47:23;;;;;;;14.63;6.32;;;;;;;;;;6269765;28;20944;-63
2024/01/12 17:50:24;;;;;;;14.10;6.30;;;;;;;;;;6268833;28;20055;-62